METAR Formatted Surface Weather Observation
Issued by NWS Buffalo, NY

Home | Current Version | Previous Version | Text Only | Print | Product List | Glossary On
Versions: 1 2
000
SAUS41 KBUF 281055
MTRROC
METAR KROC 281054Z 25007KT 10SM CLR M17/M19 A3016 RMK AO2 SLP230
T11671194



USA.gov is the U.S. government's official web portal to all federal, state and local government web resources and services.